sensor_id;sensor_type;location;lat;lon;timestamp;P1;durP1;ratioP1;P2;durP2;ratioP2
22205;SDS011;11272;50.104;8.754;2023-07-20T00:01:57;4.37;;;1.90;;
22205;SDS011;11272;50.104;8.754;2023-07-20T00:04:23;3.33;;;1.80;;
22205;SDS011;11272;50.104;8.754;2023-07-20T00:06:48;4.90;;;1.77;;
22205;SDS011;11272;50.104;8.754;2023-07-20T00:09:16;2.53;;;1.70;;
22205;SDS011;11272;50.104;8.754;2023-07-20T00:11:47;3.70;;;1.70;;
22205;SDS011;11272;50.104;8.754;2023-07-20T00:14:15;2.83;;;1.67;;
22205;SDS011;11272;50.104;8.754;2023-07-20T00:16:40;6.67;;;1.70;;
22205;SDS011;11272;50.104;8.754;2023-07-20T00:19:06;5.90;;;1.90;;
22205;SDS011;11272;50.104;8.754;2023-07-20T00:21:32;3.97;;;1.67;;
22205;SDS011;11272;50.104;8.754;2023-07-20T00:23:57;3.77;;;1.73;;
22205;SDS011;11272;50.104;8.754;2023-07-20T00:26:23;6.40;;;1.90;;
22205;SDS011;11272;50.104;8.754;2023-07-20T00:28:49;4.03;;;1.90;;
22205;SDS011;11272;50.104;8.754;2023-07-20T00:31:18;6.07;;;1.80;;
22205;SDS011;11272;50.104;8.754;2023-07-20T00:33:43;3.73;;;2.00;;
22205;SDS011;11272;50.104;8.754;2023-07-20T00:36:09;2.40;;;1.70;;
22205;SDS011;11272;50.104;8.754;2023-07-20T00:38:34;6.33;;;1.80;;
22205;SDS011;11272;50.104;8.754;2023-07-20T00:41:00;4.53;;;2.17;;
22205;SDS011;11272;50.104;8.754;2023-07-20T00:43:26;3.63;;;1.80;;
22205;SDS011;11272;50.104;8.754;2023-07-20T00:45:51;6.27;;;1.80;;
22205;SDS011;11272;50.104;8.754;2023-07-20T00:48:17;3.70;;;1.90;;
22205;SDS011;11272;50.104;8.754;2023-07-20T00:50:43;4.43;;;2.00;;
22205;SDS011;11272;50.104;8.754;2023-07-20T00:53:10;5.23;;;1.97;;
22205;SDS011;11272;50.104;8.754;2023-07-20T00:55:36;3.00;;;1.83;;
22205;SDS011;11272;50.104;8.754;2023-07-20T00:58:02;3.00;;;1.80;;
22205;SDS011;11272;50.104;8.754;2023-07-20T01:00:28;5.70;;;2.03;;
22205;SDS011;11272;50.104;8.754;2023-07-20T01:02:53;5.17;;;1.80;;
22205;SDS011;11272;50.104;8.754;2023-07-20T01:05:20;3.57;;;1.83;;
22205;SDS011;11272;50.104;8.754;2023-07-20T01:13:00;5.40;;;2.10;;
22205;SDS011;11272;50.104;8.754;2023-07-20T01:15:27;6.17;;;2.00;;
22205;SDS011;11272;50.104;8.754;2023-07-20T01:17:52;4.63;;;2.00;;
22205;SDS011;11272;50.104;8.754;2023-07-20T01:20:18;3.87;;;1.90;;
22205;SDS011;11272;50.104;8.754;2023-07-20T01:28:35;6.67;;;2.30;;
22205;SDS011;11272;50.104;8.754;2023-07-20T01:33:42;4.87;;;2.03;;
22205;SDS011;11272;50.104;8.754;2023-07-20T01:36:11;5.20;;;2.70;;
22205;SDS011;11272;50.104;8.754;2023-07-20T01:38:37;5.20;;;2.20;;
22205;SDS011;11272;50.104;8.754;2023-07-20T01:41:03;4.23;;;2.00;;
22205;SDS011;11272;50.104;8.754;2023-07-20T01:43:30;3.83;;;1.90;;
22205;SDS011;11272;50.104;8.754;2023-07-20T01:45:55;6.10;;;1.90;;
22205;SDS011;11272;50.104;8.754;2023-07-20T01:48:21;4.33;;;2.07;;
22205;SDS011;11272;50.104;8.754;2023-07-20T01:50:46;6.33;;;2.40;;
22205;SDS011;11272;50.104;8.754;2023-07-20T01:53:12;4.17;;;2.00;;
22205;SDS011;11272;50.104;8.754;2023-07-20T01:55:38;6.37;;;2.47;;
22205;SDS011;11272;50.104;8.754;2023-07-20T01:58:03;7.20;;;2.70;;
22205;SDS011;11272;50.104;8.754;2023-07-20T02:00:29;3.40;;;1.80;;
22205;SDS011;11272;50.104;8.754;2023-07-20T02:02:55;3.63;;;1.97;;
22205;SDS011;11272;50.104;8.754;2023-07-20T02:05:21;4.80;;;1.90;;
22205;SDS011;11272;50.104;8.754;2023-07-20T02:07:47;3.23;;;2.17;;
22205;SDS011;11272;50.104;8.754;2023-07-20T02:10:16;5.00;;;2.00;;
22205;SDS011;11272;50.104;8.754;2023-07-20T02:12:42;5.43;;;2.10;;
22205;SDS011;11272;50.104;8.754;2023-07-20T02:15:08;5.10;;;2.10;;
22205;SDS011;11272;50.104;8.754;2023-07-20T02:17:34;2.77;;;1.93;;
22205;SDS011;11272;50.104;8.754;2023-07-20T02:20:02;3.47;;;2.00;;
22205;SDS011;11272;50.104;8.754;2023-07-20T02:22:28;8.53;;;2.57;;
22205;SDS011;11272;50.104;8.754;2023-07-20T02:24:54;7.57;;;2.30;;
22205;SDS011;11272;50.104;8.754;2023-07-20T02:27:20;5.77;;;2.50;;
22205;SDS011;11272;50.104;8.754;2023-07-20T02:29:46;3.03;;;1.97;;
22205;SDS011;11272;50.104;8.754;2023-07-20T02:32:11;3.40;;;1.93;;
22205;SDS011;11272;50.104;8.754;2023-07-20T02:34:37;9.50;;;2.60;;
22205;SDS011;11272;50.104;8.754;2023-07-20T02:37:03;3.43;;;2.20;;
22205;SDS011;11272;50.104;8.754;2023-07-20T02:39:29;3.23;;;2.07;;
22205;SDS011;11272;50.104;8.754;2023-07-20T02:41:55;3.80;;;2.40;;
22205;SDS011;11272;50.104;8.754;2023-07-20T02:44:21;5.63;;;2.30;;
22205;SDS011;11272;50.104;8.754;2023-07-20T02:46:47;6.70;;;2.43;;
22205;SDS011;11272;50.104;8.754;2023-07-20T02:49:15;6.97;;;2.23;;
22205;SDS011;11272;50.104;8.754;2023-07-20T02:51:41;5.37;;;2.20;;
22205;SDS011;11272;50.104;8.754;2023-07-20T02:54:07;3.60;;;2.00;;
22205;SDS011;11272;50.104;8.754;2023-07-20T02:56:33;4.87;;;2.33;;
22205;SDS011;11272;50.104;8.754;2023-07-20T02:58:59;5.00;;;2.30;;
22205;SDS011;11272;50.104;8.754;2023-07-20T03:01:26;5.83;;;2.30;;
22205;SDS011;11272;50.104;8.754;2023-07-20T03:03:54;7.10;;;2.50;;
22205;SDS011;11272;50.104;8.754;2023-07-20T03:06:21;6.97;;;2.20;;
22205;SDS011;11272;50.104;8.754;2023-07-20T03:08:47;7.77;;;2.47;;
22205;SDS011;11272;50.104;8.754;2023-07-20T03:11:14;6.67;;;2.43;;
22205;SDS011;11272;50.104;8.754;2023-07-20T03:13:41;6.13;;;2.77;;
22205;SDS011;11272;50.104;8.754;2023-07-20T03:16:08;6.37;;;2.40;;
22205;SDS011;11272;50.104;8.754;2023-07-20T03:18:37;6.53;;;2.53;;
22205;SDS011;11272;50.104;8.754;2023-07-20T03:21:04;3.63;;;2.13;;
22205;SDS011;11272;50.104;8.754;2023-07-20T03:23:31;4.23;;;2.30;;
22205;SDS011;11272;50.104;8.754;2023-07-20T03:25:57;6.30;;;2.13;;
22205;SDS011;11272;50.104;8.754;2023-07-20T03:28:23;5.70;;;2.37;;
22205;SDS011;11272;50.104;8.754;2023-07-20T03:30:58;7.60;;;2.70;;
22205;SDS011;11272;50.104;8.754;2023-07-20T03:33:25;4.00;;;2.40;;
22205;SDS011;11272;50.104;8.754;2023-07-20T03:35:55;3.43;;;2.27;;
22205;SDS011;11272;50.104;8.754;2023-07-20T03:38:22;4.73;;;2.10;;
22205;SDS011;11272;50.104;8.754;2023-07-20T03:40:54;7.83;;;2.50;;
22205;SDS011;11272;50.104;8.754;2023-07-20T03:43:27;3.70;;;2.10;;
22205;SDS011;11272;50.104;8.754;2023-07-20T03:45:55;5.20;;;2.53;;
22205;SDS011;11272;50.104;8.754;2023-07-20T03:48:24;4.77;;;2.50;;
22205;SDS011;11272;50.104;8.754;2023-07-20T03:50:50;5.70;;;2.70;;
22205;SDS011;11272;50.104;8.754;2023-07-20T03:53:20;6.13;;;2.23;;
22205;SDS011;11272;50.104;8.754;2023-07-20T03:55:47;4.40;;;2.27;;
22205;SDS011;11272;50.104;8.754;2023-07-20T03:58:17;5.03;;;2.27;;
22205;SDS011;11272;50.104;8.754;2023-07-20T04:00:47;7.47;;;2.30;;
22205;SDS011;11272;50.104;8.754;2023-07-20T04:03:14;5.23;;;2.73;;
22205;SDS011;11272;50.104;8.754;2023-07-20T04:05:40;4.83;;;2.57;;
22205;SDS011;11272;50.104;8.754;2023-07-20T04:08:05;5.87;;;2.50;;
22205;SDS011;11272;50.104;8.754;2023-07-20T04:10:31;3.90;;;2.33;;
22205;SDS011;11272;50.104;8.754;2023-07-20T04:12:57;4.90;;;2.10;;
22205;SDS011;11272;50.104;8.754;2023-07-20T04:15:22;5.43;;;3.03;;
22205;SDS011;11272;50.104;8.754;2023-07-20T04:17:48;4.93;;;2.03;;
22205;SDS011;11272;50.104;8.754;2023-07-20T04:20:14;4.00;;;2.30;;
22205;SDS011;11272;50.104;8.754;2023-07-20T04:22:40;5.87;;;3.00;;
22205;SDS011;11272;50.104;8.754;2023-07-20T04:25:08;6.60;;;2.60;;
22205;SDS011;11272;50.104;8.754;2023-07-20T04:27:35;5.67;;;2.50;;
22205;SDS011;11272;50.104;8.754;2023-07-20T04:30:01;7.73;;;2.57;;
22205;SDS011;11272;50.104;8.754;2023-07-20T04:32:28;7.00;;;2.53;;
22205;SDS011;11272;50.104;8.754;2023-07-20T04:34:59;3.97;;;2.10;;
22205;SDS011;11272;50.104;8.754;2023-07-20T04:37:33;7.20;;;2.70;;
22205;SDS011;11272;50.104;8.754;2023-07-20T04:40:00;4.70;;;2.43;;
22205;SDS011;11272;50.104;8.754;2023-07-20T04:42:26;4.43;;;2.40;;
22205;SDS011;11272;50.104;8.754;2023-07-20T04:44:54;5.60;;;2.40;;
22205;SDS011;11272;50.104;8.754;2023-07-20T04:47:20;3.37;;;2.30;;
22205;SDS011;11272;50.104;8.754;2023-07-20T04:49:47;5.83;;;2.37;;
22205;SDS011;11272;50.104;8.754;2023-07-20T04:52:14;6.03;;;2.20;;
22205;SDS011;11272;50.104;8.754;2023-07-20T04:54:39;4.60;;;2.20;;
22205;SDS011;11272;50.104;8.754;2023-07-20T04:57:11;5.93;;;2.30;;
22205;SDS011;11272;50.104;8.754;2023-07-20T04:59:42;5.57;;;2.00;;
22205;SDS011;11272;50.104;8.754;2023-07-20T05:02:08;7.23;;;2.60;;
22205;SDS011;11272;50.104;8.754;2023-07-20T05:04:33;4.80;;;2.10;;
22205;SDS011;11272;50.104;8.754;2023-07-20T05:06:59;7.77;;;2.40;;
22205;SDS011;11272;50.104;8.754;2023-07-20T05:09:25;4.27;;;2.20;;
22205;SDS011;11272;50.104;8.754;2023-07-20T05:12:01;6.60;;;2.40;;
22205;SDS011;11272;50.104;8.754;2023-07-20T05:14:30;4.20;;;2.20;;
22205;SDS011;11272;50.104;8.754;2023-07-20T05:16:55;4.07;;;2.00;;
22205;SDS011;11272;50.104;8.754;2023-07-20T05:19:27;7.80;;;2.13;;
22205;SDS011;11272;50.104;8.754;2023-07-20T05:21:55;6.20;;;2.30;;
22205;SDS011;11272;50.104;8.754;2023-07-20T05:24:22;5.77;;;2.30;;
22205;SDS011;11272;50.104;8.754;2023-07-20T05:26:48;8.27;;;2.00;;
22205;SDS011;11272;50.104;8.754;2023-07-20T05:29:14;6.07;;;2.20;;
22205;SDS011;11272;50.104;8.754;2023-07-20T05:31:42;5.63;;;2.23;;
22205;SDS011;11272;50.104;8.754;2023-07-20T05:34:10;8.53;;;2.30;;
22205;SDS011;11272;50.104;8.754;2023-07-20T05:36:37;5.23;;;2.20;;
22205;SDS011;11272;50.104;8.754;2023-07-20T05:39:05;5.73;;;2.40;;
22205;SDS011;11272;50.104;8.754;2023-07-20T05:41:36;4.03;;;2.17;;
22205;SDS011;11272;50.104;8.754;2023-07-20T05:44:01;4.20;;;1.97;;
22205;SDS011;11272;50.104;8.754;2023-07-20T05:46:29;6.73;;;2.70;;
22205;SDS011;11272;50.104;8.754;2023-07-20T05:48:54;4.33;;;2.07;;
22205;SDS011;11272;50.104;8.754;2023-07-20T05:51:25;3.43;;;2.00;;
22205;SDS011;11272;50.104;8.754;2023-07-20T05:53:51;6.47;;;2.23;;
22205;SDS011;11272;50.104;8.754;2023-07-20T05:56:16;5.93;;;2.40;;
22205;SDS011;11272;50.104;8.754;2023-07-20T05:58:42;3.13;;;1.97;;
22205;SDS011;11272;50.104;8.754;2023-07-20T06:01:07;4.77;;;2.13;;
22205;SDS011;11272;50.104;8.754;2023-07-20T06:03:33;4.63;;;2.10;;
22205;SDS011;11272;50.104;8.754;2023-07-20T06:06:07;7.13;;;1.93;;
22205;SDS011;11272;50.104;8.754;2023-07-20T06:08:37;3.00;;;2.10;;
22205;SDS011;11272;50.104;8.754;2023-07-20T06:11:06;3.37;;;1.97;;
22205;SDS011;11272;50.104;8.754;2023-07-20T06:13:32;4.83;;;2.23;;
22205;SDS011;11272;50.104;8.754;2023-07-20T06:16:00;6.50;;;2.20;;
22205;SDS011;11272;50.104;8.754;2023-07-20T06:18:29;5.83;;;2.23;;
22205;SDS011;11272;50.104;8.754;2023-07-20T06:20:56;6.13;;;2.43;;
22205;SDS011;11272;50.104;8.754;2023-07-20T06:23:21;7.90;;;2.37;;
22205;SDS011;11272;50.104;8.754;2023-07-20T06:25:47;4.00;;;2.20;;
22205;SDS011;11272;50.104;8.754;2023-07-20T06:28:13;3.40;;;2.33;;
22205;SDS011;11272;50.104;8.754;2023-07-20T06:30:39;3.30;;;2.00;;
22205;SDS011;11272;50.104;8.754;2023-07-20T06:33:05;4.43;;;1.90;;
22205;SDS011;11272;50.104;8.754;2023-07-20T06:35:32;5.73;;;2.10;;
22205;SDS011;11272;50.104;8.754;2023-07-20T06:37:59;5.03;;;2.00;;
22205;SDS011;11272;50.104;8.754;2023-07-20T06:40:26;7.07;;;2.37;;
22205;SDS011;11272;50.104;8.754;2023-07-20T06:42:51;5.93;;;2.00;;
22205;SDS011;11272;50.104;8.754;2023-07-20T06:45:17;6.23;;;2.17;;
22205;SDS011;11272;50.104;8.754;2023-07-20T06:47:43;5.43;;;1.83;;
22205;SDS011;11272;50.104;8.754;2023-07-20T06:50:09;4.63;;;2.10;;
22205;SDS011;11272;50.104;8.754;2023-07-20T06:52:35;8.07;;;2.77;;
22205;SDS011;11272;50.104;8.754;2023-07-20T06:55:02;7.83;;;2.33;;
22205;SDS011;11272;50.104;8.754;2023-07-20T06:57:29;5.63;;;2.23;;
22205;SDS011;11272;50.104;8.754;2023-07-20T06:59:54;3.93;;;2.20;;
22205;SDS011;11272;50.104;8.754;2023-07-20T07:02:20;4.77;;;1.90;;
22205;SDS011;11272;50.104;8.754;2023-07-20T07:04:45;5.70;;;2.23;;
22205;SDS011;11272;50.104;8.754;2023-07-20T07:07:15;4.07;;;1.93;;
22205;SDS011;11272;50.104;8.754;2023-07-20T07:09:41;8.23;;;2.73;;
22205;SDS011;11272;50.104;8.754;2023-07-20T07:12:08;6.73;;;2.30;;
22205;SDS011;11272;50.104;8.754;2023-07-20T07:14:34;4.60;;;2.10;;
22205;SDS011;11272;50.104;8.754;2023-07-20T07:16:59;4.43;;;2.30;;
22205;SDS011;11272;50.104;8.754;2023-07-20T07:19:25;4.53;;;2.10;;
22205;SDS011;11272;50.104;8.754;2023-07-20T07:21:51;6.50;;;2.20;;
22205;SDS011;11272;50.104;8.754;2023-07-20T07:24:16;4.30;;;1.90;;
22205;SDS011;11272;50.104;8.754;2023-07-20T07:26:42;4.67;;;2.23;;
22205;SDS011;11272;50.104;8.754;2023-07-20T07:29:07;2.53;;;2.17;;
22205;SDS011;11272;50.104;8.754;2023-07-20T07:31:36;3.87;;;2.00;;
22205;SDS011;11272;50.104;8.754;2023-07-20T07:34:04;4.67;;;2.27;;
22205;SDS011;11272;50.104;8.754;2023-07-20T07:36:30;3.63;;;2.30;;
22205;SDS011;11272;50.104;8.754;2023-07-20T07:38:56;3.47;;;2.00;;
22205;SDS011;11272;50.104;8.754;2023-07-20T07:41:22;5.90;;;2.27;;
22205;SDS011;11272;50.104;8.754;2023-07-20T07:43:48;4.03;;;1.90;;
22205;SDS011;11272;50.104;8.754;2023-07-20T07:46:14;6.47;;;2.33;;
22205;SDS011;11272;50.104;8.754;2023-07-20T07:48:40;3.77;;;2.30;;
22205;SDS011;11272;50.104;8.754;2023-07-20T07:51:06;3.90;;;2.13;;
22205;SDS011;11272;50.104;8.754;2023-07-20T07:53:31;3.70;;;2.20;;
22205;SDS011;11272;50.104;8.754;2023-07-20T07:55:58;3.53;;;1.87;;
22205;SDS011;11272;50.104;8.754;2023-07-20T07:58:23;4.93;;;1.80;;
22205;SDS011;11272;50.104;8.754;2023-07-20T08:00:49;4.70;;;2.00;;
22205;SDS011;11272;50.104;8.754;2023-07-20T08:03:15;4.47;;;2.20;;
22205;SDS011;11272;50.104;8.754;2023-07-20T08:05:41;4.57;;;2.43;;
22205;SDS011;11272;50.104;8.754;2023-07-20T08:08:06;4.53;;;2.00;;
22205;SDS011;11272;50.104;8.754;2023-07-20T08:10:33;5.20;;;2.43;;
22205;SDS011;11272;50.104;8.754;2023-07-20T08:12:59;6.80;;;2.30;;
22205;SDS011;11272;50.104;8.754;2023-07-20T08:15:25;3.47;;;2.10;;
22205;SDS011;11272;50.104;8.754;2023-07-20T08:17:50;4.10;;;2.13;;
22205;SDS011;11272;50.104;8.754;2023-07-20T08:20:17;4.80;;;2.10;;
22205;SDS011;11272;50.104;8.754;2023-07-20T08:22:43;4.40;;;2.33;;
22205;SDS011;11272;50.104;8.754;2023-07-20T08:25:09;5.38;;;2.00;;
22205;SDS011;11272;50.104;8.754;2023-07-20T08:27:35;4.82;;;2.40;;
22205;SDS011;11272;50.104;8.754;2023-07-20T08:30:02;6.47;;;2.35;;
22205;SDS011;11272;50.104;8.754;2023-07-20T08:32:29;2.83;;;1.75;;
22205;SDS011;11272;50.104;8.754;2023-07-20T08:34:55;4.70;;;2.03;;
22205;SDS011;11272;50.104;8.754;2023-07-20T08:37:20;4.55;;;2.00;;
22205;SDS011;11272;50.104;8.754;2023-07-20T08:39:46;2.97;;;1.77;;
22205;SDS011;11272;50.104;8.754;2023-07-20T08:42:12;5.05;;;1.70;;
22205;SDS011;11272;50.104;8.754;2023-07-20T08:44:39;3.53;;;1.48;;
22205;SDS011;11272;50.104;8.754;2023-07-20T08:47:08;4.28;;;2.00;;
22205;SDS011;11272;50.104;8.754;2023-07-20T08:49:35;4.65;;;1.85;;
22205;SDS011;11272;50.104;8.754;2023-07-20T08:52:00;7.50;;;1.90;;
22205;SDS011;11272;50.104;8.754;2023-07-20T08:54:32;5.28;;;2.10;;
22205;SDS011;11272;50.104;8.754;2023-07-20T08:57:02;6.47;;;2.00;;
22205;SDS011;11272;50.104;8.754;2023-07-20T08:59:29;2.42;;;1.90;;
22205;SDS011;11272;50.104;8.754;2023-07-20T09:01:56;3.40;;;2.10;;
22205;SDS011;11272;50.104;8.754;2023-07-20T09:04:23;3.72;;;1.85;;
22205;SDS011;11272;50.104;8.754;2023-07-20T09:06:49;3.67;;;2.08;;
22205;SDS011;11272;50.104;8.754;2023-07-20T09:09:15;2.90;;;1.70;;
22205;SDS011;11272;50.104;8.754;2023-07-20T09:11:41;5.07;;;2.30;;
22205;SDS011;11272;50.104;8.754;2023-07-20T09:14:07;4.57;;;1.80;;
22205;SDS011;11272;50.104;8.754;2023-07-20T09:19:14;2.90;;;2.08;;
22205;SDS011;11272;50.104;8.754;2023-07-20T09:21:43;4.43;;;2.00;;
22205;SDS011;11272;50.104;8.754;2023-07-20T09:24:10;2.50;;;2.00;;
22205;SDS011;11272;50.104;8.754;2023-07-20T09:26:40;3.10;;;2.15;;
22205;SDS011;11272;50.104;8.754;2023-07-20T09:29:07;5.95;;;1.75;;
22205;SDS011;11272;50.104;8.754;2023-07-20T09:31:34;3.05;;;1.77;;
22205;SDS011;11272;50.104;8.754;2023-07-20T09:34:00;23.48;;;3.08;;
22205;SDS011;11272;50.104;8.754;2023-07-20T09:36:28;3.72;;;1.92;;
22205;SDS011;11272;50.104;8.754;2023-07-20T09:38:54;3.58;;;1.80;;
22205;SDS011;11272;50.104;8.754;2023-07-20T09:41:20;4.45;;;2.03;;
22205;SDS011;11272;50.104;8.754;2023-07-20T09:43:46;4.97;;;2.25;;
22205;SDS011;11272;50.104;8.754;2023-07-20T09:46:12;3.33;;;1.95;;
22205;SDS011;11272;50.104;8.754;2023-07-20T09:48:39;2.60;;;1.80;;
22205;SDS011;11272;50.104;8.754;2023-07-20T09:51:04;3.85;;;2.10;;
22205;SDS011;11272;50.104;8.754;2023-07-20T09:53:32;6.18;;;2.25;;
22205;SDS011;11272;50.104;8.754;2023-07-20T09:55:59;2.53;;;1.90;;
22205;SDS011;11272;50.104;8.754;2023-07-20T09:58:28;3.10;;;1.70;;
22205;SDS011;11272;50.104;8.754;2023-07-20T10:00:57;5.07;;;1.98;;
22205;SDS011;11272;50.104;8.754;2023-07-20T10:03:28;3.95;;;1.90;;
22205;SDS011;11272;50.104;8.754;2023-07-20T10:06:00;2.70;;;1.97;;
22205;SDS011;11272;50.104;8.754;2023-07-20T10:08:29;3.30;;;1.70;;
22205;SDS011;11272;50.104;8.754;2023-07-20T10:10:56;3.50;;;2.10;;
22205;SDS011;11272;50.104;8.754;2023-07-20T10:13:26;3.77;;;1.93;;
22205;SDS011;11272;50.104;8.754;2023-07-20T10:21:42;4.50;;;1.40;;
22205;SDS011;11272;50.104;8.754;2023-07-20T10:24:14;4.90;;;2.47;;
22205;SDS011;11272;50.104;8.754;2023-07-20T10:26:44;6.57;;;1.75;;
22205;SDS011;11272;50.104;8.754;2023-07-20T10:34:33;3.55;;;1.70;;
22205;SDS011;11272;50.104;8.754;2023-07-20T10:39:47;2.58;;;1.70;;
22205;SDS011;11272;50.104;8.754;2023-07-20T11:05:03;3.22;;;1.83;;
22205;SDS011;11272;50.104;8.754;2023-07-20T11:07:38;4.68;;;1.80;;
22205;SDS011;11272;50.104;8.754;2023-07-20T11:15:45;4.60;;;1.88;;
22205;SDS011;11272;50.104;8.754;2023-07-20T11:23:41;4.13;;;1.80;;
22205;SDS011;11272;50.104;8.754;2023-07-20T11:26:08;5.93;;;2.50;;
22205;SDS011;11272;50.104;8.754;2023-07-20T11:28:35;2.08;;;1.50;;
22205;SDS011;11272;50.104;8.754;2023-07-20T11:31:01;2.63;;;1.98;;
22205;SDS011;11272;50.104;8.754;2023-07-20T11:33:27;3.63;;;2.08;;
22205;SDS011;11272;50.104;8.754;2023-07-20T11:35:52;4.13;;;1.75;;
22205;SDS011;11272;50.104;8.754;2023-07-20T11:38:18;2.72;;;1.58;;
22205;SDS011;11272;50.104;8.754;2023-07-20T11:40:44;2.75;;;1.95;;
22205;SDS011;11272;50.104;8.754;2023-07-20T11:43:11;2.83;;;1.67;;
22205;SDS011;11272;50.104;8.754;2023-07-20T11:45:38;6.75;;;1.70;;
22205;SDS011;11272;50.104;8.754;2023-07-20T11:48:04;2.60;;;1.80;;
22205;SDS011;11272;50.104;8.754;2023-07-20T11:50:30;2.33;;;1.50;;
22205;SDS011;11272;50.104;8.754;2023-07-20T11:52:56;4.40;;;1.77;;
22205;SDS011;11272;50.104;8.754;2023-07-20T11:55:22;3.00;;;1.60;;
22205;SDS011;11272;50.104;8.754;2023-07-20T11:58:04;2.38;;;1.40;;
22205;SDS011;11272;50.104;8.754;2023-07-20T12:00:30;3.60;;;1.90;;
22205;SDS011;11272;50.104;8.754;2023-07-20T12:02:57;2.17;;;1.60;;
22205;SDS011;11272;50.104;8.754;2023-07-20T12:05:23;3.83;;;1.45;;
22205;SDS011;11272;50.104;8.754;2023-07-20T12:07:49;2.58;;;1.58;;
22205;SDS011;11272;50.104;8.754;2023-07-20T12:10:22;2.53;;;1.77;;
22205;SDS011;11272;50.104;8.754;2023-07-20T12:12:50;5.30;;;1.73;;
22205;SDS011;11272;50.104;8.754;2023-07-20T12:15:20;3.30;;;1.73;;
22205;SDS011;11272;50.104;8.754;2023-07-20T12:17:50;3.10;;;1.70;;
22205;SDS011;11272;50.104;8.754;2023-07-20T12:20:25;2.00;;;1.80;;
22205;SDS011;11272;50.104;8.754;2023-07-20T12:22:51;3.30;;;1.60;;
22205;SDS011;11272;50.104;8.754;2023-07-20T12:25:17;3.38;;;1.42;;
22205;SDS011;11272;50.104;8.754;2023-07-20T12:27:45;6.53;;;2.22;;
22205;SDS011;11272;50.104;8.754;2023-07-20T12:30:12;4.47;;;1.50;;
22205;SDS011;11272;50.104;8.754;2023-07-20T12:32:39;4.05;;;1.80;;
22205;SDS011;11272;50.104;8.754;2023-07-20T12:35:05;2.90;;;1.80;;
22205;SDS011;11272;50.104;8.754;2023-07-20T12:37:31;4.75;;;1.77;;
22205;SDS011;11272;50.104;8.754;2023-07-20T12:39:57;3.15;;;2.20;;
22205;SDS011;11272;50.104;8.754;2023-07-20T12:42:22;3.58;;;1.60;;
22205;SDS011;11272;50.104;8.754;2023-07-20T12:44:49;4.05;;;1.77;;
22205;SDS011;11272;50.104;8.754;2023-07-20T12:47:16;2.28;;;1.80;;
22205;SDS011;11272;50.104;8.754;2023-07-20T12:49:43;2.50;;;1.70;;
22205;SDS011;11272;50.104;8.754;2023-07-20T12:52:10;1.70;;;1.50;;
22205;SDS011;11272;50.104;8.754;2023-07-20T12:54:36;4.35;;;1.70;;
22205;SDS011;11272;50.104;8.754;2023-07-20T12:57:02;5.97;;;1.90;;
22205;SDS011;11272;50.104;8.754;2023-07-20T12:59:28;4.35;;;1.60;;
22205;SDS011;11272;50.104;8.754;2023-07-20T13:01:54;4.15;;;1.98;;
22205;SDS011;11272;50.104;8.754;2023-07-20T13:04:20;2.47;;;1.45;;
22205;SDS011;11272;50.104;8.754;2023-07-20T13:06:45;2.00;;;1.50;;
22205;SDS011;11272;50.104;8.754;2023-07-20T13:09:11;4.40;;;1.80;;
22205;SDS011;11272;50.104;8.754;2023-07-20T13:11:36;1.40;;;1.30;;
22205;SDS011;11272;50.104;8.754;2023-07-20T13:14:03;2.28;;;1.30;;
22205;SDS011;11272;50.104;8.754;2023-07-20T13:16:28;2.25;;;1.30;;
22205;SDS011;11272;50.104;8.754;2023-07-20T13:18:54;4.70;;;1.88;;
22205;SDS011;11272;50.104;8.754;2023-07-20T13:21:19;4.40;;;1.60;;
22205;SDS011;11272;50.104;8.754;2023-07-20T13:23:48;2.45;;;1.42;;
22205;SDS011;11272;50.104;8.754;2023-07-20T13:26:14;4.28;;;1.63;;
22205;SDS011;11272;50.104;8.754;2023-07-20T13:28:41;2.63;;;1.30;;
22205;SDS011;11272;50.104;8.754;2023-07-20T13:31:06;2.05;;;1.52;;
22205;SDS011;11272;50.104;8.754;2023-07-20T13:33:35;2.42;;;1.50;;
22205;SDS011;11272;50.104;8.754;2023-07-20T13:36:01;2.13;;;1.58;;
22205;SDS011;11272;50.104;8.754;2023-07-20T13:38:27;2.42;;;1.60;;
22205;SDS011;11272;50.104;8.754;2023-07-20T13:40:52;4.95;;;1.88;;
22205;SDS011;11272;50.104;8.754;2023-07-20T13:43:18;2.40;;;1.63;;
22205;SDS011;11272;50.104;8.754;2023-07-20T13:45:44;4.25;;;1.33;;
22205;SDS011;11272;50.104;8.754;2023-07-20T13:48:09;2.65;;;1.90;;
22205;SDS011;11272;50.104;8.754;2023-07-20T13:50:35;2.20;;;1.50;;
22205;SDS011;11272;50.104;8.754;2023-07-20T13:53:00;6.03;;;1.67;;
22205;SDS011;11272;50.104;8.754;2023-07-20T13:55:28;1.38;;;1.27;;
22205;SDS011;11272;50.104;8.754;2023-07-20T13:57:53;2.28;;;1.40;;
22205;SDS011;11272;50.104;8.754;2023-07-20T14:00:19;4.10;;;1.42;;
22205;SDS011;11272;50.104;8.754;2023-07-20T14:02:44;4.78;;;1.25;;
22205;SDS011;11272;50.104;8.754;2023-07-20T14:05:10;2.83;;;1.50;;
22205;SDS011;11272;50.104;8.754;2023-07-20T14:07:36;1.45;;;1.35;;
22205;SDS011;11272;50.104;8.754;2023-07-20T14:10:02;3.78;;;1.50;;
22205;SDS011;11272;50.104;8.754;2023-07-20T14:12:28;1.75;;;1.45;;
22205;SDS011;11272;50.104;8.754;2023-07-20T14:14:54;3.60;;;1.50;;
22205;SDS011;11272;50.104;8.754;2023-07-20T14:17:21;2.90;;;1.50;;
22205;SDS011;11272;50.104;8.754;2023-07-20T14:19:46;2.65;;;1.55;;
22205;SDS011;11272;50.104;8.754;2023-07-20T14:22:12;5.75;;;1.40;;
22205;SDS011;11272;50.104;8.754;2023-07-20T14:24:38;1.58;;;1.33;;
22205;SDS011;11272;50.104;8.754;2023-07-20T14:27:04;2.92;;;1.00;;
22205;SDS011;11272;50.104;8.754;2023-07-20T14:29:30;4.05;;;1.38;;
22205;SDS011;11272;50.104;8.754;2023-07-20T14:31:57;2.10;;;1.20;;
22205;SDS011;11272;50.104;8.754;2023-07-20T14:34:22;1.25;;;1.15;;
22205;SDS011;11272;50.104;8.754;2023-07-20T14:36:48;1.30;;;1.20;;
22205;SDS011;11272;50.104;8.754;2023-07-20T14:39:15;1.95;;;1.30;;
22205;SDS011;11272;50.104;8.754;2023-07-20T14:41:40;3.28;;;1.40;;
22205;SDS011;11272;50.104;8.754;2023-07-20T14:44:07;4.00;;;1.23;;
22205;SDS011;11272;50.104;8.754;2023-07-20T14:46:32;6.18;;;1.52;;
22205;SDS011;11272;50.104;8.754;2023-07-20T14:48:58;3.03;;;1.67;;
22205;SDS011;11272;50.104;8.754;2023-07-20T14:51:24;7.82;;;1.70;;
22205;SDS011;11272;50.104;8.754;2023-07-20T14:53:49;5.80;;;1.40;;
22205;SDS011;11272;50.104;8.754;2023-07-20T14:56:15;1.92;;;1.17;;
22205;SDS011;11272;50.104;8.754;2023-07-20T14:58:40;2.70;;;1.40;;
22205;SDS011;11272;50.104;8.754;2023-07-20T15:01:06;2.53;;;1.30;;
22205;SDS011;11272;50.104;8.754;2023-07-20T15:03:32;4.93;;;1.80;;
22205;SDS011;11272;50.104;8.754;2023-07-20T15:05:57;7.22;;;3.22;;
22205;SDS011;11272;50.104;8.754;2023-07-20T15:08:23;2.17;;;1.63;;
22205;SDS011;11272;50.104;8.754;2023-07-20T15:10:49;2.35;;;1.40;;
22205;SDS011;11272;50.104;8.754;2023-07-20T15:13:14;6.20;;;1.50;;
22205;SDS011;11272;50.104;8.754;2023-07-20T15:15:40;2.30;;;1.30;;
22205;SDS011;11272;50.104;8.754;2023-07-20T15:18:07;1.75;;;1.30;;
22205;SDS011;11272;50.104;8.754;2023-07-20T15:20:32;5.80;;;1.80;;
22205;SDS011;11272;50.104;8.754;2023-07-20T15:22:58;2.83;;;1.40;;
22205;SDS011;11272;50.104;8.754;2023-07-20T15:25:24;2.17;;;1.33;;
22205;SDS011;11272;50.104;8.754;2023-07-20T15:27:50;3.70;;;1.30;;
22205;SDS011;11272;50.104;8.754;2023-07-20T15:30:16;3.03;;;2.10;;
22205;SDS011;11272;50.104;8.754;2023-07-20T15:32:43;2.10;;;1.40;;
22205;SDS011;11272;50.104;8.754;2023-07-20T15:35:10;2.15;;;1.52;;
22205;SDS011;11272;50.104;8.754;2023-07-20T15:37:36;4.53;;;1.30;;
22205;SDS011;11272;50.104;8.754;2023-07-20T15:40:02;2.25;;;1.30;;
22205;SDS011;11272;50.104;8.754;2023-07-20T15:42:31;2.30;;;1.20;;
22205;SDS011;11272;50.104;8.754;2023-07-20T15:44:57;2.13;;;1.33;;
22205;SDS011;11272;50.104;8.754;2023-07-20T15:47:23;1.25;;;1.05;;
22205;SDS011;11272;50.104;8.754;2023-07-20T15:49:49;2.55;;;1.40;;